createdAt,value
2023-05-09T00:01:13.002Z,13.50
2023-05-09T00:02:14.846Z,14.05
2023-05-09T00:03:16.720Z,13.98
2023-05-09T00:04:18.610Z,15.10
2023-05-09T00:05:21.718Z,14.48
2023-05-09T00:06:23.486Z,14.45
2023-05-09T00:07:25.293Z,19.58
2023-05-09T00:08:27.197Z,14.57
2023-05-09T00:09:28.946Z,13.20
2023-05-09T00:10:31.025Z,14.00
2023-05-09T00:11:32.784Z,14.80
2023-05-09T00:12:34.895Z,14.70
2023-05-09T00:13:37.498Z,13.85
2023-05-09T00:14:40.726Z,14.90
2023-05-09T00:15:42.544Z,14.10
2023-05-09T00:16:45.378Z,14.20
2023-05-09T00:17:47.969Z,14.65
2023-05-09T00:18:49.757Z,13.75
2023-05-09T00:19:52.999Z,13.00
2023-05-09T00:20:54.744Z,13.15
2023-05-09T00:21:56.482Z,14.77
2023-05-09T00:22:58.196Z,12.73
2023-05-09T00:24:01.006Z,14.40
2023-05-09T00:25:03.286Z,14.68
2023-05-09T00:26:05.851Z,14.57
2023-05-09T00:27:07.614Z,14.52
2023-05-09T00:28:09.454Z,13.95
2023-05-09T00:29:11.198Z,15.90
2023-05-09T00:30:13.028Z,15.77
2023-05-09T00:31:14.878Z,14.30
2023-05-09T00:32:16.682Z,15.07
2023-05-09T00:33:19.787Z,14.82
2023-05-09T00:34:21.624Z,15.27
2023-05-09T00:35:23.503Z,14.95
2023-05-09T00:36:25.206Z,14.55
2023-05-09T00:37:27.150Z,14.48
2023-05-09T00:38:29.089Z,13.93
2023-05-09T00:39:30.922Z,14.63
2023-05-09T00:40:32.632Z,15.77
2023-05-09T00:41:34.451Z,15.63
2023-05-09T00:42:36.852Z,15.75
2023-05-09T00:43:38.602Z,16.23
2023-05-09T00:44:40.458Z,16.83
2023-05-09T00:45:42.708Z,16.90
2023-05-09T00:46:44.844Z,18.50
2023-05-09T00:47:46.772Z,17.33
2023-05-09T00:48:48.672Z,16.17
2023-05-09T00:49:50.652Z,15.70
2023-05-09T00:50:53.188Z,16.65
2023-05-09T00:51:56.147Z,16.85
2023-05-09T00:52:59.666Z,15.60
2023-05-09T00:54:01.535Z,17.08
2023-05-09T00:55:04.524Z,17.30
2023-05-09T00:56:07.269Z,17.30
2023-05-09T00:57:09.222Z,15.05
2023-05-09T00:58:11.477Z,15.65
2023-05-09T00:59:13.211Z,15.63
2023-05-09T01:00:15.467Z,15.27
2023-05-09T01:01:17.290Z,17.25
2023-05-09T01:02:19.310Z,17.48
2023-05-09T01:03:21.208Z,17.00
2023-05-09T01:04:23.431Z,16.33
2023-05-09T01:05:35.008Z,16.48
2023-05-09T01:07:03.965Z,17.52
2023-05-09T01:08:17.712Z,16.65
2023-05-09T01:10:00.525Z,17.58
2023-05-09T01:11:06.118Z,17.00
2023-05-09T01:12:11.159Z,19.83
2023-05-09T01:13:32.919Z,19.45
2023-05-09T01:14:42.162Z,21.38
2023-05-09T01:15:51.561Z,19.73
2023-05-09T01:17:02.108Z,19.45
2023-05-09T01:18:09.557Z,18.85
2023-05-09T01:19:27.501Z,19.38
2023-05-09T01:20:46.343Z,17.73
2023-05-09T01:21:50.167Z,17.85
2023-05-09T01:23:19.641Z,17.27
2023-05-09T01:24:50.877Z,17.98
2023-05-09T01:26:13.854Z,18.30
2023-05-09T01:27:44.631Z,19.70
2023-05-09T01:29:11.180Z,19.13
2023-05-09T01:30:14.092Z,19.20
2023-05-09T01:31:17.017Z,17.27
2023-05-09T01:32:24.289Z,19.45
2023-05-09T01:33:28.298Z,20.90
2023-05-09T01:34:32.337Z,18.92
2023-05-09T01:35:37.695Z,20.10
2023-05-09T01:36:41.468Z,18.35
2023-05-09T01:37:48.862Z,19.05
2023-05-09T01:38:52.646Z,19.27
2023-05-09T01:39:58.848Z,18.25
2023-05-09T01:41:02.373Z,18.67
2023-05-09T01:42:07.349Z,18.15
2023-05-09T01:43:11.444Z,18.63
2023-05-09T01:44:15.917Z,17.25
2023-05-09T01:45:19.779Z,19.15
2023-05-09T01:46:22.713Z,19.10
2023-05-09T01:47:25.046Z,19.63
2023-05-09T01:48:30.153Z,19.27
2023-05-09T01:49:35.004Z,19.55
2023-05-09T01:50:39.867Z,20.15
2023-05-09T01:51:43.804Z,19.20
2023-05-09T01:52:49.157Z,18.60
2023-05-09T01:53:53.013Z,17.63
2023-05-09T01:54:55.871Z,17.67
2023-05-09T01:55:59.305Z,19.00
2023-05-09T01:57:03.337Z,18.17
2023-05-09T01:58:06.222Z,19.30
2023-05-09T01:59:08.382Z,19.70
2023-05-09T02:00:13.022Z,19.42
2023-05-09T02:01:15.456Z,19.02
2023-05-09T02:02:17.939Z,19.35
2023-05-09T02:03:21.309Z,17.35
2023-05-09T02:04:24.067Z,19.80
2023-05-09T02:05:28.662Z,18.20
2023-05-09T02:06:31.642Z,18.23
2023-05-09T02:07:33.908Z,17.48
2023-05-09T02:08:36.094Z,18.98
2023-05-09T02:09:37.984Z,17.60
2023-05-09T02:10:40.396Z,17.52
2023-05-09T02:11:42.202Z,19.05
2023-05-09T02:12:44.027Z,18.33
2023-05-09T02:13:45.936Z,17.80
2023-05-09T02:14:47.655Z,18.73
2023-05-09T02:15:49.549Z,17.73
2023-05-09T02:16:51.502Z,17.25
2023-05-09T02:17:53.315Z,17.77
2023-05-09T02:18:55.589Z,21.35
2023-05-09T02:19:57.626Z,20.25
2023-05-09T02:20:59.662Z,19.75
2023-05-09T02:22:02.795Z,18.00
2023-05-09T02:23:04.990Z,19.25
2023-05-09T02:24:07.093Z,20.08
2023-05-09T02:25:10.615Z,22.38
2023-05-09T02:26:12.745Z,21.30
2023-05-09T02:27:15.536Z,20.05
2023-05-09T02:28:19.567Z,20.90
2023-05-09T02:29:26.075Z,20.08
2023-05-09T02:30:33.695Z,20.92
2023-05-09T02:31:36.115Z,20.05
2023-05-09T02:32:39.309Z,18.85
2023-05-09T02:33:42.802Z,19.55
2023-05-09T02:34:46.199Z,20.20
2023-05-09T02:35:48.740Z,20.63
2023-05-09T02:36:50.588Z,19.90
2023-05-09T02:37:53.283Z,20.85
2023-05-09T02:38:55.728Z,21.17
2023-05-09T02:39:58.302Z,21.55
2023-05-09T02:41:00.171Z,22.15
2023-05-09T02:42:11.049Z,21.55
2023-05-09T02:43:12.819Z,21.63
2023-05-09T02:44:14.597Z,23.08
2023-05-09T02:45:17.148Z,23.25
2023-05-09T02:46:19.261Z,23.40
2023-05-09T02:47:21.488Z,22.08
2023-05-09T02:48:23.309Z,21.60
2023-05-09T02:49:31.968Z,21.75
2023-05-09T02:50:34.791Z,24.00
2023-05-09T02:51:36.590Z,22.58
2023-05-09T02:52:38.422Z,22.73
2023-05-09T02:53:40.260Z,22.50
2023-05-09T02:54:42.119Z,21.50
2023-05-09T02:55:43.917Z,22.90
2023-05-09T02:56:45.965Z,22.42
2023-05-09T02:57:47.899Z,23.33
2023-05-09T02:58:51.522Z,22.73
2023-05-09T02:59:53.356Z,22.60
2023-05-09T03:00:55.036Z,23.17
2023-05-09T03:01:57.192Z,21.80
2023-05-09T03:03:00.583Z,22.00
2023-05-09T03:04:02.387Z,22.20
2023-05-09T03:05:04.865Z,22.63
2023-05-09T03:06:06.862Z,22.00
2023-05-09T03:07:08.705Z,22.63
2023-05-09T03:08:10.502Z,23.38
2023-05-09T03:09:12.202Z,21.65
2023-05-09T03:10:13.960Z,21.55
2023-05-09T03:11:15.798Z,22.15
2023-05-09T03:12:17.565Z,21.67
2023-05-09T03:13:19.451Z,21.10
2023-05-09T03:14:21.440Z,19.40
2023-05-09T03:15:23.371Z,20.55
2023-05-09T03:16:25.210Z,20.88
2023-05-09T03:17:27.860Z,20.05
2023-05-09T03:18:29.622Z,20.48
2023-05-09T03:19:32.263Z,20.35
2023-05-09T03:20:34.045Z,20.67
2023-05-09T03:21:36.272Z,20.52
2023-05-09T03:22:38.127Z,20.33
2023-05-09T03:23:39.962Z,19.27
2023-05-09T03:24:41.755Z,19.60
2023-05-09T03:25:43.519Z,21.10
2023-05-09T03:26:45.297Z,20.77
2023-05-09T03:27:46.934Z,20.38
2023-05-09T03:28:49.048Z,19.88
2023-05-09T03:29:51.063Z,20.75
2023-05-09T03:30:52.818Z,20.42
2023-05-09T03:31:54.570Z,19.60
2023-05-09T03:32:56.397Z,20.25
2023-05-09T03:33:58.335Z,19.90
2023-05-09T03:35:00.109Z,20.05
2023-05-09T03:36:01.897Z,19.65
2023-05-09T03:37:03.603Z,20.00
2023-05-09T03:38:05.824Z,19.98
2023-05-09T03:39:08.294Z,19.10
2023-05-09T03:40:10.492Z,19.17
2023-05-09T03:41:16.141Z,17.35
2023-05-09T03:42:18.005Z,19.17
2023-05-09T03:43:19.893Z,18.83
2023-05-09T03:44:21.567Z,18.10
2023-05-09T03:45:23.365Z,20.48
2023-05-09T03:46:25.163Z,18.92
2023-05-09T03:47:26.952Z,19.25
2023-05-09T03:48:28.658Z,19.27
2023-05-09T03:49:30.418Z,20.52
2023-05-09T03:50:32.163Z,20.92
2023-05-09T03:51:33.935Z,19.85
2023-05-09T03:52:37.296Z,20.00
2023-05-09T03:53:38.937Z,22.92
2023-05-09T03:54:40.912Z,21.42
2023-05-09T03:55:42.726Z,22.23
2023-05-09T03:56:44.462Z,22.58
2023-05-09T03:57:46.667Z,21.73
2023-05-09T03:58:48.693Z,23.17
2023-05-09T03:59:50.409Z,20.27
2023-05-09T04:00:52.256Z,21.20
2023-05-09T04:01:54.215Z,19.95
2023-05-09T04:02:56.094Z,19.23
2023-05-09T04:03:58.045Z,19.88
2023-05-09T04:05:00.878Z,20.42
2023-05-09T04:06:02.702Z,18.65
2023-05-09T04:07:04.424Z,20.45
2023-05-09T04:08:06.223Z,19.38
2023-05-09T04:09:07.952Z,20.13
2023-05-09T04:10:10.191Z,20.65
2023-05-09T04:11:11.910Z,20.85
2023-05-09T04:12:13.703Z,21.65
2023-05-09T04:13:16.467Z,22.30
2023-05-09T04:14:18.344Z,21.30
2023-05-09T04:15:20.150Z,21.90
2023-05-09T04:16:21.928Z,22.70
2023-05-09T04:17:23.711Z,24.35
2023-05-09T04:18:25.811Z,23.17
2023-05-09T04:19:27.592Z,23.17
2023-05-09T04:20:29.682Z,23.67
2023-05-09T04:21:31.851Z,23.13
2023-05-09T04:22:33.693Z,23.70
2023-05-09T04:23:35.496Z,24.30
2023-05-09T04:24:37.187Z,22.42
2023-05-09T04:25:39.153Z,22.42
2023-05-09T04:26:41.558Z,22.48
2023-05-09T04:27:43.207Z,23.70
2023-05-09T04:28:44.886Z,22.80
2023-05-09T04:29:46.698Z,23.42
2023-05-09T04:30:48.497Z,22.45
2023-05-09T04:31:50.560Z,21.92
2023-05-09T04:32:53.467Z,24.00
2023-05-09T04:33:55.625Z,22.63
2023-05-09T04:34:57.372Z,22.60
2023-05-09T04:35:59.146Z,23.20
2023-05-09T04:37:01.127Z,22.95
2023-05-09T04:38:02.852Z,22.20
2023-05-09T04:39:08.155Z,21.08
2023-05-09T04:40:10.557Z,21.27
2023-05-09T04:41:12.485Z,21.52
2023-05-09T04:42:14.175Z,21.63
2023-05-09T04:43:15.891Z,24.17
2023-05-09T04:44:18.534Z,23.40
2023-05-09T04:45:20.798Z,23.45
2023-05-09T04:46:24.973Z,23.23
2023-05-09T04:47:27.674Z,23.80
2023-05-09T04:48:29.406Z,23.85
2023-05-09T04:49:31.219Z,22.60
2023-05-09T04:50:33.133Z,22.73
2023-05-09T04:51:35.169Z,22.30
2023-05-09T04:52:36.906Z,22.35
2023-05-09T04:53:38.665Z,22.67
2023-05-09T04:54:41.067Z,21.80
2023-05-09T04:55:43.253Z,23.15
2023-05-09T04:56:45.104Z,22.85
2023-05-09T04:57:46.850Z,22.30
2023-05-09T04:58:48.709Z,20.80
2023-05-09T04:59:50.568Z,22.52
2023-05-09T05:00:52.902Z,22.02
2023-05-09T05:01:54.679Z,24.17
2023-05-09T05:02:56.913Z,23.58
2023-05-09T05:03:58.564Z,23.73
2023-05-09T05:05:17.603Z,23.33
2023-05-09T05:06:19.411Z,22.40
2023-05-09T05:07:21.268Z,24.05
2023-05-09T05:08:23.067Z,23.70
2023-05-09T05:09:24.856Z,24.30
2023-05-09T05:10:26.630Z,23.95
2023-05-09T05:11:28.315Z,25.08
2023-05-09T05:12:30.057Z,24.83
2023-05-09T05:13:31.898Z,24.73
2023-05-09T05:14:33.680Z,25.80
2023-05-09T05:15:35.414Z,24.52
2023-05-09T05:16:37.208Z,25.73
2023-05-09T05:17:39.310Z,23.92
2023-05-09T05:18:41.097Z,23.73
2023-05-09T05:19:42.789Z,22.92
2023-05-09T05:20:44.699Z,24.15
2023-05-09T05:21:46.478Z,24.13
2023-05-09T05:22:48.172Z,24.02
2023-05-09T05:23:50.627Z,24.88
2023-05-09T05:24:52.377Z,24.67
2023-05-09T05:25:54.126Z,22.08
2023-05-09T05:26:55.849Z,23.55
2023-05-09T05:27:57.494Z,23.20
2023-05-09T05:28:59.308Z,23.10
2023-05-09T05:30:01.114Z,23.70
2023-05-09T05:31:02.807Z,23.05
2023-05-09T05:32:04.652Z,23.83
2023-05-09T05:33:06.385Z,24.42
2023-05-09T05:34:08.086Z,23.55
2023-05-09T05:35:11.950Z,23.05
2023-05-09T05:36:13.808Z,22.80
2023-05-09T05:37:15.538Z,22.83
2023-05-09T05:38:17.364Z,22.92
2023-05-09T05:39:19.238Z,23.92
2023-05-09T05:40:21.204Z,22.13
2023-05-09T05:41:23.455Z,23.30
2023-05-09T05:42:25.313Z,23.60
2023-05-09T05:43:27.289Z,22.90
2023-05-09T05:44:29.052Z,23.25
2023-05-09T05:45:31.019Z,23.35
2023-05-09T05:46:32.820Z,22.45
2023-05-09T05:47:35.965Z,22.92
2023-05-09T05:48:38.265Z,22.20
2023-05-09T05:49:40.047Z,23.90
2023-05-09T05:50:41.808Z,23.48
2023-05-09T05:51:43.541Z,22.02
2023-05-09T05:52:45.350Z,21.75
2023-05-09T05:53:47.217Z,22.88
2023-05-09T05:54:49.544Z,23.13
2023-05-09T05:55:51.296Z,22.20
2023-05-09T05:56:53.054Z,21.90
2023-05-09T05:57:54.749Z,21.45
2023-05-09T05:58:56.651Z,21.67
2023-05-09T05:59:58.389Z,21.52
2023-05-09T06:01:00.189Z,21.20
2023-05-09T06:02:02.073Z,22.88
2023-05-09T06:03:04.028Z,21.73
2023-05-09T06:04:05.939Z,21.80
2023-05-09T06:05:08.515Z,21.55
2023-05-09T06:06:10.759Z,22.85
2023-05-09T06:07:14.054Z,23.15
2023-05-09T06:08:15.929Z,23.70
2023-05-09T06:09:17.653Z,22.60
2023-05-09T06:10:19.640Z,23.33
2023-05-09T06:11:21.936Z,22.60
2023-05-09T06:12:23.675Z,22.48
2023-05-09T06:13:25.590Z,23.20
2023-05-09T06:14:27.694Z,22.42
2023-05-09T06:15:29.440Z,22.42
2023-05-09T06:16:31.256Z,22.13
2023-05-09T06:17:33.664Z,21.48
2023-05-09T06:18:37.707Z,22.63
2023-05-09T06:19:39.404Z,21.92
2023-05-09T06:20:41.100Z,23.67
2023-05-09T06:21:42.875Z,22.98
2023-05-09T06:22:44.608Z,21.95
2023-05-09T06:24:51.063Z,21.88
2023-05-09T06:25:52.830Z,22.52
2023-05-09T06:26:54.719Z,22.98
2023-05-09T06:27:56.532Z,22.90
2023-05-09T06:28:58.216Z,21.77
2023-05-09T06:30:01.361Z,22.48
2023-05-09T06:31:04.409Z,21.58
2023-05-09T06:32:06.209Z,21.77
2023-05-09T06:33:07.953Z,22.15
2023-05-09T06:34:10.274Z,22.15
2023-05-09T06:35:12.358Z,21.58
2023-05-09T06:36:15.475Z,22.73
2023-05-09T06:37:18.435Z,22.48
2023-05-09T06:38:20.935Z,22.85
2023-05-09T06:39:23.173Z,21.33
2023-05-09T06:40:26.205Z,21.20
2023-05-09T06:41:28.753Z,20.38
2023-05-09T06:42:32.895Z,21.27
2023-05-09T06:43:35.456Z,20.77
2023-05-09T06:44:41.246Z,20.80
2023-05-09T06:45:43.617Z,22.52
2023-05-09T06:46:46.095Z,21.83
2023-05-09T06:47:48.436Z,21.05
2023-05-09T06:48:51.533Z,21.05
2023-05-09T06:49:59.452Z,20.48
2023-05-09T06:51:02.138Z,21.67
2023-05-09T06:52:07.783Z,21.13
2023-05-09T06:53:09.950Z,21.20
2023-05-09T06:54:12.727Z,22.30
2023-05-09T06:55:15.637Z,21.05
2023-05-09T06:56:20.446Z,20.80
2023-05-09T06:57:26.541Z,22.38
2023-05-09T06:58:29.558Z,20.55
2023-05-09T06:59:32.632Z,21.17
2023-05-09T07:00:36.193Z,20.15
2023-05-09T07:01:39.145Z,20.27
2023-05-09T07:02:42.491Z,19.33
2023-05-09T07:03:46.875Z,19.23
2023-05-09T07:04:49.689Z,20.27
2023-05-09T07:05:57.292Z,19.90
2023-05-09T07:07:01.366Z,18.92
2023-05-09T07:08:04.065Z,19.70
2023-05-09T07:09:06.437Z,20.05
2023-05-09T07:10:12.337Z,19.65
2023-05-09T07:11:15.699Z,18.45
2023-05-09T07:12:17.461Z,18.38
2023-05-09T07:13:19.951Z,18.13
2023-05-09T07:14:24.915Z,17.70
2023-05-09T07:15:40.498Z,18.52
2023-05-09T07:16:43.952Z,18.48
2023-05-09T07:17:47.178Z,18.48
2023-05-09T07:18:49.895Z,18.55
2023-05-09T07:19:52.431Z,16.92
2023-05-09T07:20:54.932Z,17.48
2023-05-09T07:21:57.445Z,18.75
2023-05-09T07:23:00.141Z,18.55
2023-05-09T07:24:02.990Z,17.45
2023-05-09T07:25:07.884Z,18.15
2023-05-09T07:26:11.298Z,18.33
2023-05-09T07:27:13.778Z,17.92
2023-05-09T07:28:15.973Z,17.83
2023-05-09T07:29:20.190Z,17.27
2023-05-09T07:30:23.363Z,17.45
2023-05-09T07:31:26.204Z,17.55
2023-05-09T07:32:29.150Z,16.42
2023-05-09T07:33:45.488Z,15.48
2023-05-09T07:34:48.419Z,17.10
2023-05-09T07:35:53.522Z,16.38
2023-05-09T07:36:56.272Z,15.25
2023-05-09T07:37:58.334Z,14.63
2023-05-09T07:39:05.742Z,16.23
2023-05-09T07:40:09.370Z,15.82
2023-05-09T07:41:13.030Z,15.88
2023-05-09T07:42:14.994Z,15.90
2023-05-09T07:43:17.768Z,16.67
2023-05-09T07:44:20.240Z,16.60
2023-05-09T07:45:24.025Z,15.38
2023-05-09T07:46:27.490Z,15.88
2023-05-09T07:47:29.668Z,14.88
2023-05-09T07:48:32.056Z,16.15
2023-05-09T07:49:34.728Z,14.90
2023-05-09T07:50:37.357Z,14.00
2023-05-09T07:51:39.357Z,14.38
2023-05-09T07:52:42.615Z,15.35
2023-05-09T07:53:45.368Z,16.20
2023-05-09T07:54:48.597Z,15.45
2023-05-09T07:55:55.248Z,15.05
2023-05-09T07:56:58.159Z,15.43
2023-05-09T07:58:00.890Z,15.10
2023-05-09T07:59:03.663Z,14.73
2023-05-09T08:00:07.454Z,15.35
2023-05-09T08:01:10.650Z,14.93
2023-05-09T08:02:12.701Z,15.20
2023-05-09T08:03:14.719Z,14.93
2023-05-09T08:04:16.687Z,14.68
2023-05-09T08:05:18.725Z,15.98
2023-05-09T08:06:20.484Z,15.35
2023-05-09T08:07:22.258Z,15.65
2023-05-09T08:08:24.666Z,16.27
2023-05-09T08:09:26.701Z,15.88
2023-05-09T08:10:30.697Z,14.70
2023-05-09T08:11:36.082Z,15.25
2023-05-09T08:12:37.921Z,16.27
2023-05-09T08:13:39.744Z,15.25
2023-05-09T08:14:41.597Z,15.93
2023-05-09T08:15:43.544Z,15.00
2023-05-09T08:16:45.341Z,14.95
2023-05-09T08:17:47.108Z,13.93
2023-05-09T08:18:49.331Z,15.15
2023-05-09T08:19:51.089Z,14.82
2023-05-09T08:20:52.967Z,15.20
2023-05-09T08:21:55.629Z,14.60
2023-05-09T08:22:57.660Z,14.30
2023-05-09T08:24:00.974Z,14.43
2023-05-09T08:25:03.844Z,13.48
2023-05-09T08:26:05.757Z,15.18
2023-05-09T08:27:07.549Z,14.70
2023-05-09T08:28:09.672Z,14.50
2023-05-09T08:29:11.973Z,14.25
2023-05-09T08:30:14.688Z,13.82
2023-05-09T08:31:16.692Z,14.10
2023-05-09T08:32:19.888Z,14.20
2023-05-09T08:33:21.666Z,14.63
2023-05-09T08:34:23.323Z,13.85
2023-05-09T08:35:25.391Z,14.35
2023-05-09T08:36:27.082Z,14.82
2023-05-09T08:37:29.097Z,13.50
2023-05-09T08:38:30.909Z,14.07
2023-05-09T08:39:34.937Z,14.90
2023-05-09T08:40:38.023Z,14.38
2023-05-09T08:41:40.116Z,13.45
2023-05-09T08:42:45.863Z,15.10
2023-05-09T08:43:49.055Z,14.00
2023-05-09T08:44:50.829Z,14.52
2023-05-09T08:45:58.256Z,14.85
2023-05-09T08:47:02.001Z,14.60
2023-05-09T08:48:04.114Z,13.93
2023-05-09T08:49:09.773Z,13.77
2023-05-09T08:50:15.216Z,13.13
2023-05-09T08:51:17.976Z,12.30
2023-05-09T08:52:20.974Z,12.40
2023-05-09T08:53:23.015Z,12.07
2023-05-09T08:54:25.383Z,12.82
2023-05-09T08:55:28.350Z,11.55
2023-05-09T08:56:31.568Z,13.10
2023-05-09T08:57:35.362Z,12.18
2023-05-09T08:58:38.616Z,11.85
2023-05-09T08:59:42.706Z,11.80
2023-05-09T09:00:45.293Z,11.80
2023-05-09T09:01:47.893Z,12.88
2023-05-09T09:02:49.899Z,11.57
2023-05-09T09:03:51.973Z,12.20
2023-05-09T09:04:56.670Z,13.13
2023-05-09T09:05:58.777Z,13.13
2023-05-09T09:07:03.980Z,13.57
2023-05-09T09:08:07.994Z,14.30
2023-05-09T09:09:11.502Z,13.20
2023-05-09T09:10:14.077Z,13.52
2023-05-09T09:11:17.244Z,13.75
2023-05-09T09:12:23.398Z,14.82
2023-05-09T09:13:26.221Z,13.02
2023-05-09T09:14:31.453Z,13.60
2023-05-09T09:15:37.617Z,13.73
2023-05-09T09:16:43.367Z,14.82
2023-05-09T09:17:48.487Z,13.57
2023-05-09T09:18:52.754Z,12.10
2023-05-09T09:19:59.713Z,12.45
2023-05-09T09:21:09.698Z,12.18
2023-05-09T09:22:15.934Z,10.02
2023-05-09T09:23:20.509Z,12.98
2023-05-09T09:24:23.113Z,13.75
2023-05-09T09:25:26.232Z,12.63
2023-05-09T09:26:31.661Z,11.27
2023-05-09T09:27:33.381Z,11.73
2023-05-09T09:28:35.603Z,13.45
2023-05-09T09:29:38.728Z,13.40
2023-05-09T09:30:44.957Z,12.68
2023-05-09T09:31:47.863Z,12.73
2023-05-09T09:32:49.778Z,11.90
2023-05-09T09:33:52.164Z,11.07
2023-05-09T09:35:07.605Z,11.32
2023-05-09T09:36:09.382Z,11.68
2023-05-09T09:37:23.174Z,12.00
2023-05-09T09:38:25.167Z,11.23
2023-05-09T09:39:26.877Z,13.02
2023-05-09T09:40:28.699Z,13.25
2023-05-09T09:41:33.942Z,11.32
2023-05-09T09:42:48.828Z,11.63
2023-05-09T09:43:50.579Z,11.77
2023-05-09T09:45:03.390Z,11.50
2023-05-09T09:46:06.155Z,13.00
2023-05-09T09:47:10.722Z,12.07
2023-05-09T09:48:12.405Z,11.88
2023-05-09T09:49:16.203Z,12.52
2023-05-09T09:50:19.530Z,12.98
2023-05-09T09:51:21.601Z,12.65
2023-05-09T09:52:27.743Z,12.60
2023-05-09T09:53:30.924Z,11.75
2023-05-09T09:54:33.448Z,11.18
2023-05-09T09:55:35.552Z,12.25
2023-05-09T09:56:49.042Z,12.07
2023-05-09T09:57:51.919Z,12.45
2023-05-09T09:59:12.650Z,11.93
2023-05-09T10:00:17.166Z,12.15
2023-05-09T10:01:20.088Z,12.35
2023-05-09T10:02:23.794Z,12.82
2023-05-09T10:03:34.610Z,11.95
2023-05-09T10:04:41.822Z,12.88
2023-05-09T10:05:43.733Z,11.68
2023-05-09T10:06:55.935Z,12.73
2023-05-09T10:08:02.900Z,12.15
2023-05-09T10:09:04.677Z,11.50
2023-05-09T10:10:06.909Z,11.35
2023-05-09T10:11:10.105Z,11.70
2023-05-09T10:12:14.631Z,11.70
2023-05-09T10:13:16.941Z,11.95
2023-05-09T10:14:21.224Z,12.88
2023-05-09T10:15:23.630Z,11.95
2023-05-09T10:16:31.939Z,12.38
2023-05-09T10:17:42.349Z,12.77
2023-05-09T10:18:44.684Z,11.65
2023-05-09T10:19:47.684Z,11.45
2023-05-09T10:20:49.784Z,11.88
2023-05-09T10:21:57.959Z,11.90
2023-05-09T10:23:03.223Z,11.45
2023-05-09T10:24:05.661Z,12.20
2023-05-09T10:25:14.903Z,11.07
2023-05-09T10:26:22.997Z,11.70
2023-05-09T10:27:28.739Z,11.27
2023-05-09T10:28:34.794Z,10.25
2023-05-09T10:29:40.456Z,11.77
2023-05-09T10:31:09.089Z,11.45
2023-05-09T10:32:32.151Z,10.55
2023-05-09T10:33:48.120Z,10.52
2023-05-09T10:34:53.333Z,10.23
2023-05-09T10:35:57.212Z,9.88
2023-05-09T10:37:00.811Z,10.57
2023-05-09T10:38:03.116Z,10.25
2023-05-09T10:39:05.005Z,10.15
2023-05-09T10:40:07.880Z,11.35
2023-05-09T10:41:11.043Z,11.43
2023-05-09T10:42:14.121Z,11.02
2023-05-09T10:43:16.645Z,11.02
2023-05-09T10:44:19.126Z,10.15
2023-05-09T10:45:22.592Z,10.48
2023-05-09T10:46:24.930Z,10.35
2023-05-09T10:47:28.085Z,11.45
2023-05-09T10:48:30.670Z,11.85
2023-05-09T10:49:34.302Z,11.55
2023-05-09T10:50:40.242Z,10.32
2023-05-09T10:51:42.258Z,10.82
2023-05-09T10:53:10.968Z,10.18
2023-05-09T10:54:30.981Z,10.13
2023-05-09T10:55:49.644Z,10.57
2023-05-09T10:56:51.390Z,9.88
2023-05-09T10:57:54.664Z,11.43
2023-05-09T10:58:57.327Z,10.40
2023-05-09T11:00:00.470Z,10.77
2023-05-09T11:01:04.495Z,10.85
2023-05-09T11:02:12.683Z,9.90
2023-05-09T11:03:14.564Z,10.57
2023-05-09T11:04:17.477Z,9.70
2023-05-09T11:05:20.388Z,9.90
2023-05-09T11:06:53.024Z,11.55
2023-05-09T11:08:25.880Z,10.88
2023-05-09T11:09:34.344Z,10.02
2023-05-09T11:10:42.690Z,9.85
2023-05-09T11:11:58.683Z,9.30
2023-05-09T11:13:00.954Z,9.00
2023-05-09T11:14:02.726Z,8.73
2023-05-09T11:15:07.798Z,7.90
2023-05-09T11:16:11.464Z,8.20
2023-05-09T11:17:14.476Z,8.48
2023-05-09T11:18:16.605Z,9.32
2023-05-09T11:19:56.504Z,8.77
2023-05-09T11:20:58.557Z,8.30
2023-05-09T11:22:03.171Z,6.90
2023-05-09T11:23:06.916Z,8.85
2023-05-09T11:24:18.820Z,7.70
2023-05-09T11:25:28.150Z,6.97
2023-05-09T11:26:30.543Z,7.35
2023-05-09T11:27:38.489Z,6.70
2023-05-09T11:28:40.266Z,7.88
2023-05-09T11:29:56.181Z,6.93
2023-05-09T11:31:11.203Z,6.13
2023-05-09T11:32:16.279Z,7.38
2023-05-09T11:33:28.373Z,6.22
2023-05-09T11:34:30.195Z,6.25
2023-05-09T11:35:33.355Z,6.63
2023-05-09T11:36:35.591Z,6.03
2023-05-09T11:38:06.063Z,6.40
2023-05-09T11:39:11.420Z,5.45
2023-05-09T11:40:14.666Z,5.82
2023-05-09T11:41:16.500Z,5.95
2023-05-09T11:42:18.610Z,6.20
2023-05-09T11:43:20.504Z,5.70
2023-05-09T11:44:22.205Z,5.53
2023-05-09T11:45:26.916Z,4.95
2023-05-09T11:46:28.732Z,5.55
2023-05-09T11:47:30.943Z,6.10
2023-05-09T11:48:38.955Z,6.20
2023-05-09T11:49:44.369Z,5.22
2023-05-09T11:50:48.336Z,5.53
2023-05-09T11:51:50.245Z,5.75
2023-05-09T11:52:53.304Z,5.63
2023-05-09T11:53:55.065Z,5.43
2023-05-09T11:54:58.622Z,4.82
2023-05-09T11:56:04.312Z,6.03
2023-05-09T11:57:07.044Z,5.63
2023-05-09T11:58:09.882Z,6.22
2023-05-09T11:59:14.502Z,5.65
2023-05-09T12:00:23.980Z,5.53
2023-05-09T12:01:25.860Z,5.95
2023-05-09T12:02:28.674Z,5.40
2023-05-09T12:03:30.958Z,5.03
2023-05-09T12:04:34.016Z,5.20
2023-05-09T12:05:39.526Z,4.05
2023-05-09T12:06:46.756Z,4.78
2023-05-09T12:07:49.018Z,5.05
2023-05-09T12:08:50.786Z,5.38
2023-05-09T12:09:52.680Z,5.30
2023-05-09T12:10:54.524Z,4.75
2023-05-09T12:11:56.185Z,4.60
2023-05-09T12:12:58.143Z,4.60
2023-05-09T12:13:59.966Z,4.40
2023-05-09T12:15:08.268Z,4.72
2023-05-09T12:16:10.362Z,5.05
2023-05-09T12:17:12.394Z,5.57
2023-05-09T12:18:14.788Z,4.70
2023-05-09T12:19:18.914Z,4.57
2023-05-09T12:20:20.806Z,4.38
2023-05-09T12:21:22.534Z,4.30
2023-05-09T12:22:24.259Z,4.68
2023-05-09T12:23:26.111Z,4.50
2023-05-09T12:24:29.364Z,4.40
2023-05-09T12:25:31.093Z,4.88
2023-05-09T12:26:33.958Z,4.78
2023-05-09T12:27:37.459Z,4.45
2023-05-09T12:28:39.871Z,4.63
2023-05-09T12:29:45.964Z,4.57
2023-05-09T12:30:48.017Z,4.40
2023-05-09T12:31:50.750Z,4.18
2023-05-09T12:32:52.588Z,3.60
2023-05-09T12:33:54.842Z,3.53
2023-05-09T12:34:56.558Z,3.85
2023-05-09T12:36:11.027Z,3.20
2023-05-09T12:37:20.053Z,3.03
2023-05-09T12:38:23.222Z,3.22
2023-05-09T12:39:25.055Z,3.60
2023-05-09T12:40:27.776Z,3.33
2023-05-09T12:41:39.155Z,3.03
2023-05-09T12:42:45.057Z,3.03
2023-05-09T12:43:49.787Z,3.00
2023-05-09T12:44:51.529Z,3.40
2023-05-09T12:45:53.421Z,3.10
2023-05-09T12:47:00.403Z,2.97
2023-05-09T12:48:02.736Z,2.40
2023-05-09T12:49:05.417Z,2.95
2023-05-09T12:50:08.198Z,2.97
2023-05-09T12:51:10.009Z,2.60
2023-05-09T12:52:20.379Z,2.80
2023-05-09T12:53:31.655Z,2.75
2023-05-09T12:54:33.411Z,2.53
2023-05-09T12:55:41.177Z,3.10
2023-05-09T12:56:42.901Z,2.80
2023-05-09T12:57:59.175Z,2.40
2023-05-09T12:59:01.056Z,2.80
2023-05-09T13:00:04.796Z,2.63
2023-05-09T13:01:06.770Z,2.45
2023-05-09T13:02:08.616Z,2.47
2023-05-09T13:03:27.426Z,2.63
2023-05-09T13:04:29.484Z,2.63
2023-05-09T13:05:32.071Z,2.90
2023-05-09T13:06:34.783Z,2.60
2023-05-09T13:07:44.486Z,2.30
2023-05-09T13:09:01.675Z,2.10
2023-05-09T13:10:12.371Z,2.20
2023-05-09T13:11:17.336Z,2.20
2023-05-09T13:12:20.600Z,2.20
2023-05-09T13:13:27.043Z,2.10
2023-05-09T13:14:28.818Z,2.17
2023-05-09T13:15:30.686Z,2.50
2023-05-09T13:16:32.804Z,2.15
2023-05-09T13:17:34.587Z,2.40
2023-05-09T13:18:36.459Z,2.05
2023-05-09T13:19:39.577Z,2.28
2023-05-09T13:20:41.402Z,2.42
2023-05-09T13:21:43.332Z,2.10
2023-05-09T13:22:47.422Z,2.28
2023-05-09T13:23:50.182Z,2.30
2023-05-09T13:24:51.958Z,2.42
2023-05-09T13:25:53.653Z,2.28
2023-05-09T13:26:55.604Z,2.47
2023-05-09T13:27:57.356Z,6.38
2023-05-09T13:28:59.325Z,2.75
2023-05-09T13:30:01.186Z,2.40
2023-05-09T13:31:04.013Z,2.33
2023-05-09T13:32:06.050Z,2.35
2023-05-09T13:33:23.929Z,2.42
2023-05-09T13:34:26.741Z,2.00
2023-05-09T13:35:28.961Z,2.70
2023-05-09T13:36:32.582Z,1.98
2023-05-09T13:37:35.002Z,2.17
2023-05-09T13:38:40.272Z,2.30
2023-05-09T13:39:42.084Z,2.33
2023-05-09T13:40:43.770Z,2.03
2023-05-09T13:41:45.544Z,2.25
2023-05-09T13:42:48.965Z,2.47
2023-05-09T13:43:50.825Z,2.20
2023-05-09T13:44:53.108Z,2.30
2023-05-09T13:45:54.944Z,2.15
2023-05-09T13:46:58.652Z,2.10
2023-05-09T13:48:00.709Z,2.20
2023-05-09T13:49:02.710Z,2.20
2023-05-09T13:50:04.682Z,2.35